X  Fechar Metar - Info de Aeroporto     LPMT Montijo Air Base
Temperatura
18°C Temperatura
8°C Ptº Orvalho
52% Humidade



Vento
8 KM/H
5 MPH
2 M/S
4 NÓS



10°
N
Condições Atuais

Limpo Limpo
Pressão 1029.92 (hPa) - 30.41 (inHg)
Visibilidade 6.2 (milha) - 10 (km)
Aeroporto
Código-Aeroporto LPMT

Localização: Montijo Air Base
Distância: 6 (km)

Metar:
LPMT 041700Z 01004KT CAVOK 18/08 Q1030

Hora: 2023-02-04 17:00 WET